sensor_id;sensor_type;location;lat;lon;timestamp;P1;durP1;ratioP1;P2;durP2;ratioP2
47483;SDS011;54076;50.322;18.650;2022-10-15T00:04:41;44.70;;;21.10;;
47483;SDS011;54076;50.322;18.650;2022-10-15T00:09:43;45.10;;;20.20;;
47483;SDS011;54076;50.322;18.650;2022-10-15T00:14:44;46.20;;;21.30;;
47483;SDS011;54076;50.322;18.650;2022-10-15T00:19:45;44.40;;;20.20;;
47483;SDS011;54076;50.322;18.650;2022-10-15T00:24:45;44.70;;;19.70;;
47483;SDS011;54076;50.322;18.650;2022-10-15T00:29:46;41.80;;;19.30;;
47483;SDS011;54076;50.322;18.650;2022-10-15T00:34:50;44.80;;;21.30;;
47483;SDS011;54076;50.322;18.650;2022-10-15T00:39:51;47.40;;;20.90;;
47483;SDS011;54076;50.322;18.650;2022-10-15T00:44:57;45.60;;;20.50;;
47483;SDS011;54076;50.322;18.650;2022-10-15T00:50:12;51.10;;;21.20;;
47483;SDS011;54076;50.322;18.650;2022-10-15T01:00:36;44.90;;;20.00;;
47483;SDS011;54076;50.322;18.650;2022-10-15T01:05:38;46.00;;;21.60;;
47483;SDS011;54076;50.322;18.650;2022-10-15T01:10:47;45.20;;;20.40;;
47483;SDS011;54076;50.322;18.650;2022-10-15T01:21:32;47.40;;;21.60;;
47483;SDS011;54076;50.322;18.650;2022-10-15T01:26:47;42.90;;;21.40;;
47483;SDS011;54076;50.322;18.650;2022-10-15T01:37:46;43.10;;;21.60;;
47483;SDS011;54076;50.322;18.650;2022-10-15T01:42:57;44.10;;;21.10;;
47483;SDS011;54076;50.322;18.650;2022-10-15T01:48:04;48.30;;;20.70;;
47483;SDS011;54076;50.322;18.650;2022-10-15T01:53:09;44.10;;;21.50;;
47483;SDS011;54076;50.322;18.650;2022-10-15T01:58:13;42.80;;;19.70;;
47483;SDS011;54076;50.322;18.650;2022-10-15T02:03:17;42.30;;;19.00;;
47483;SDS011;54076;50.322;18.650;2022-10-15T02:24:26;43.00;;;19.90;;
47483;SDS011;54076;50.322;18.650;2022-10-15T02:29:34;37.90;;;18.50;;
47483;SDS011;54076;50.322;18.650;2022-10-15T02:34:37;37.90;;;18.60;;
47483;SDS011;54076;50.322;18.650;2022-10-15T02:39:39;41.30;;;19.70;;
47483;SDS011;54076;50.322;18.650;2022-10-15T02:44:43;45.00;;;20.40;;
47483;SDS011;54076;50.322;18.650;2022-10-15T02:49:44;42.00;;;21.00;;
47483;SDS011;54076;50.322;18.650;2022-10-15T02:54:45;48.40;;;20.80;;
47483;SDS011;54076;50.322;18.650;2022-10-15T02:59:46;45.70;;;21.00;;
47483;SDS011;54076;50.322;18.650;2022-10-15T03:04:47;45.50;;;21.60;;
47483;SDS011;54076;50.322;18.650;2022-10-15T03:09:48;46.30;;;21.90;;
47483;SDS011;54076;50.322;18.650;2022-10-15T03:14:49;49.50;;;21.40;;
47483;SDS011;54076;50.322;18.650;2022-10-15T03:19:50;49.60;;;22.90;;
47483;SDS011;54076;50.322;18.650;2022-10-15T03:24:51;48.00;;;22.20;;
47483;SDS011;54076;50.322;18.650;2022-10-15T03:29:51;47.50;;;23.40;;
47483;SDS011;54076;50.322;18.650;2022-10-15T03:34:53;57.70;;;23.20;;
47483;SDS011;54076;50.322;18.650;2022-10-15T03:39:53;44.00;;;21.10;;
47483;SDS011;54076;50.322;18.650;2022-10-15T03:44:54;46.00;;;21.50;;
47483;SDS011;54076;50.322;18.650;2022-10-15T03:49:55;48.00;;;21.90;;
47483;SDS011;54076;50.322;18.650;2022-10-15T03:54:56;46.40;;;22.00;;
47483;SDS011;54076;50.322;18.650;2022-10-15T03:59:57;47.30;;;23.30;;
47483;SDS011;54076;50.322;18.650;2022-10-15T04:04:58;47.00;;;21.50;;
47483;SDS011;54076;50.322;18.650;2022-10-15T04:09:59;46.60;;;22.00;;
47483;SDS011;54076;50.322;18.650;2022-10-15T04:15:00;41.80;;;20.20;;
47483;SDS011;54076;50.322;18.650;2022-10-15T04:20:01;47.30;;;22.00;;
47483;SDS011;54076;50.322;18.650;2022-10-15T04:25:03;45.90;;;22.20;;
47483;SDS011;54076;50.322;18.650;2022-10-15T04:30:05;45.00;;;21.90;;
47483;SDS011;54076;50.322;18.650;2022-10-15T04:35:07;48.90;;;22.20;;
47483;SDS011;54076;50.322;18.650;2022-10-15T04:40:08;45.10;;;22.20;;
47483;SDS011;54076;50.322;18.650;2022-10-15T04:45:10;42.00;;;20.90;;
47483;SDS011;54076;50.322;18.650;2022-10-15T04:50:11;42.90;;;20.60;;
47483;SDS011;54076;50.322;18.650;2022-10-15T04:55:11;43.40;;;20.60;;
47483;SDS011;54076;50.322;18.650;2022-10-15T05:00:12;42.40;;;20.70;;
47483;SDS011;54076;50.322;18.650;2022-10-15T05:05:14;42.60;;;20.10;;
47483;SDS011;54076;50.322;18.650;2022-10-15T05:10:15;39.80;;;18.90;;
47483;SDS011;54076;50.322;18.650;2022-10-15T05:15:16;41.00;;;19.30;;
47483;SDS011;54076;50.322;18.650;2022-10-15T05:20:17;42.10;;;19.80;;
47483;SDS011;54076;50.322;18.650;2022-10-15T05:25:18;42.10;;;19.30;;
47483;SDS011;54076;50.322;18.650;2022-10-15T05:30:19;41.30;;;19.20;;
47483;SDS011;54076;50.322;18.650;2022-10-15T05:35:20;40.90;;;18.80;;
47483;SDS011;54076;50.322;18.650;2022-10-15T05:40:21;36.70;;;18.50;;
47483;SDS011;54076;50.322;18.650;2022-10-15T05:45:22;40.70;;;18.60;;
47483;SDS011;54076;50.322;18.650;2022-10-15T05:50:23;36.70;;;18.60;;
47483;SDS011;54076;50.322;18.650;2022-10-15T05:55:24;36.90;;;17.50;;
47483;SDS011;54076;50.322;18.650;2022-10-15T06:00:25;37.20;;;18.30;;
47483;SDS011;54076;50.322;18.650;2022-10-15T06:05:26;36.10;;;18.10;;
47483;SDS011;54076;50.322;18.650;2022-10-15T06:10:27;38.10;;;17.50;;
47483;SDS011;54076;50.322;18.650;2022-10-15T06:15:28;36.20;;;17.40;;
47483;SDS011;54076;50.322;18.650;2022-10-15T06:20:30;38.50;;;17.60;;
47483;SDS011;54076;50.322;18.650;2022-10-15T06:25:31;35.80;;;17.70;;
47483;SDS011;54076;50.322;18.650;2022-10-15T06:30:33;35.60;;;17.20;;
47483;SDS011;54076;50.322;18.650;2022-10-15T06:35:34;34.30;;;16.40;;
47483;SDS011;54076;50.322;18.650;2022-10-15T06:40:36;36.60;;;17.20;;
47483;SDS011;54076;50.322;18.650;2022-10-15T06:45:40;34.10;;;16.20;;
47483;SDS011;54076;50.322;18.650;2022-10-15T06:50:42;34.80;;;17.70;;
47483;SDS011;54076;50.322;18.650;2022-10-15T06:55:46;37.70;;;16.70;;
47483;SDS011;54076;50.322;18.650;2022-10-15T07:00:46;35.60;;;18.40;;
47483;SDS011;54076;50.322;18.650;2022-10-15T07:05:47;35.80;;;18.20;;
47483;SDS011;54076;50.322;18.650;2022-10-15T07:10:48;36.90;;;17.80;;
47483;SDS011;54076;50.322;18.650;2022-10-15T07:15:49;37.30;;;18.10;;
47483;SDS011;54076;50.322;18.650;2022-10-15T07:20:55;33.50;;;17.10;;
47483;SDS011;54076;50.322;18.650;2022-10-15T07:25:57;31.30;;;16.70;;
47483;SDS011;54076;50.322;18.650;2022-10-15T07:31:03;35.60;;;16.80;;
47483;SDS011;54076;50.322;18.650;2022-10-15T07:36:09;34.20;;;16.20;;
47483;SDS011;54076;50.322;18.650;2022-10-15T07:41:13;35.00;;;16.50;;
47483;SDS011;54076;50.322;18.650;2022-10-15T07:46:14;41.10;;;16.00;;
47483;SDS011;54076;50.322;18.650;2022-10-15T07:51:14;32.60;;;15.60;;
47483;SDS011;54076;50.322;18.650;2022-10-15T07:56:16;32.20;;;15.40;;
47483;SDS011;54076;50.322;18.650;2022-10-15T08:01:18;30.50;;;15.50;;
47483;SDS011;54076;50.322;18.650;2022-10-15T08:06:21;31.20;;;16.50;;
47483;SDS011;54076;50.322;18.650;2022-10-15T08:11:22;32.80;;;16.90;;
47483;SDS011;54076;50.322;18.650;2022-10-15T08:16:22;32.50;;;16.20;;
47483;SDS011;54076;50.322;18.650;2022-10-15T08:21:24;31.70;;;16.50;;
47483;SDS011;54076;50.322;18.650;2022-10-15T08:26:25;36.80;;;18.10;;
47483;SDS011;54076;50.322;18.650;2022-10-15T08:31:26;33.00;;;17.90;;
47483;SDS011;54076;50.322;18.650;2022-10-15T08:36:27;35.80;;;17.70;;
47483;SDS011;54076;50.322;18.650;2022-10-15T08:41:56;32.20;;;16.90;;
47483;SDS011;54076;50.322;18.650;2022-10-15T08:52:41;32.50;;;15.00;;
47483;SDS011;54076;50.322;18.650;2022-10-15T08:57:54;30.00;;;15.30;;
47483;SDS011;54076;50.322;18.650;2022-10-15T09:08:43;25.80;;;14.70;;
47483;SDS011;54076;50.322;18.650;2022-10-15T09:13:58;25.90;;;13.50;;
47483;SDS011;54076;50.322;18.650;2022-10-15T09:18:59;27.60;;;14.30;;
47483;SDS011;54076;50.322;18.650;2022-10-15T09:24:04;25.50;;;14.20;;
47483;SDS011;54076;50.322;18.650;2022-10-15T09:29:29;23.10;;;12.20;;
47483;SDS011;54076;50.322;18.650;2022-10-15T09:40:27;22.90;;;12.50;;
47483;SDS011;54076;50.322;18.650;2022-10-15T09:45:32;22.80;;;11.90;;
47483;SDS011;54076;50.322;18.650;2022-10-15T09:50:38;21.50;;;11.20;;
47483;SDS011;54076;50.322;18.650;2022-10-15T09:55:51;17.30;;;10.10;;
47483;SDS011;54076;50.322;18.650;2022-10-15T10:01:03;16.60;;;9.90;;
47483;SDS011;54076;50.322;18.650;2022-10-15T10:06:16;17.60;;;10.10;;
47483;SDS011;54076;50.322;18.650;2022-10-15T10:11:17;15.30;;;9.10;;
47483;SDS011;54076;50.322;18.650;2022-10-15T10:16:20;21.70;;;9.20;;
47483;SDS011;54076;50.322;18.650;2022-10-15T10:21:33;19.70;;;8.80;;
47483;SDS011;54076;50.322;18.650;2022-10-15T10:26:36;15.80;;;9.70;;
47483;SDS011;54076;50.322;18.650;2022-10-15T10:31:37;17.70;;;9.20;;
47483;SDS011;54076;50.322;18.650;2022-10-15T10:36:42;16.30;;;9.40;;
47483;SDS011;54076;50.322;18.650;2022-10-15T10:42:02;14.70;;;8.10;;
47483;SDS011;54076;50.322;18.650;2022-10-15T10:47:17;15.10;;;6.90;;
47483;SDS011;54076;50.322;18.650;2022-10-15T10:52:36;15.50;;;6.80;;
47483;SDS011;54076;50.322;18.650;2022-10-15T11:02:55;18.30;;;7.00;;
47483;SDS011;54076;50.322;18.650;2022-10-15T11:24:41;12.10;;;6.60;;
47483;SDS011;54076;50.322;18.650;2022-10-15T11:40:48;12.80;;;6.30;;
47483;SDS011;54076;50.322;18.650;2022-10-15T11:45:54;15.70;;;7.10;;
47483;SDS011;54076;50.322;18.650;2022-10-15T11:56:36;10.60;;;5.60;;
47483;SDS011;54076;50.322;18.650;2022-10-15T12:01:51;11.70;;;6.00;;
47483;SDS011;54076;50.322;18.650;2022-10-15T12:06:56;15.00;;;6.30;;
47483;SDS011;54076;50.322;18.650;2022-10-15T12:28:36;15.90;;;6.40;;
47483;SDS011;54076;50.322;18.650;2022-10-15T12:39:20;11.60;;;6.20;;
47483;SDS011;54076;50.322;18.650;2022-10-15T12:44:30;11.20;;;6.10;;
47483;SDS011;54076;50.322;18.650;2022-10-15T12:54:41;12.10;;;6.50;;
47483;SDS011;54076;50.322;18.650;2022-10-15T13:04:45;13.20;;;6.80;;
47483;SDS011;54076;50.322;18.650;2022-10-15T13:09:46;12.30;;;6.30;;
47483;SDS011;54076;50.322;18.650;2022-10-15T13:14:51;13.20;;;6.60;;
47483;SDS011;54076;50.322;18.650;2022-10-15T13:19:58;13.00;;;6.60;;
47483;SDS011;54076;50.322;18.650;2022-10-15T13:25:14;12.50;;;6.40;;
47483;SDS011;54076;50.322;18.650;2022-10-15T13:30:16;12.00;;;7.00;;
47483;SDS011;54076;50.322;18.650;2022-10-15T13:35:43;12.30;;;7.00;;
47483;SDS011;54076;50.322;18.650;2022-10-15T13:40:46;13.60;;;7.20;;
47483;SDS011;54076;50.322;18.650;2022-10-15T13:45:54;12.10;;;6.90;;
47483;SDS011;54076;50.322;18.650;2022-10-15T13:51:01;15.30;;;7.40;;
47483;SDS011;54076;50.322;18.650;2022-10-15T13:56:31;12.90;;;6.80;;
47483;SDS011;54076;50.322;18.650;2022-10-15T14:01:32;13.40;;;6.90;;
47483;SDS011;54076;50.322;18.650;2022-10-15T14:06:35;12.00;;;6.40;;
47483;SDS011;54076;50.322;18.650;2022-10-15T14:11:39;14.20;;;5.80;;
47483;SDS011;54076;50.322;18.650;2022-10-15T14:16:44;12.20;;;6.60;;
47483;SDS011;54076;50.322;18.650;2022-10-15T14:21:47;11.60;;;6.50;;
47483;SDS011;54076;50.322;18.650;2022-10-15T14:26:51;11.70;;;6.50;;
47483;SDS011;54076;50.322;18.650;2022-10-15T14:31:53;14.90;;;7.00;;
47483;SDS011;54076;50.322;18.650;2022-10-15T14:36:54;13.10;;;7.60;;
47483;SDS011;54076;50.322;18.650;2022-10-15T14:41:58;17.00;;;7.80;;
47483;SDS011;54076;50.322;18.650;2022-10-15T14:47:00;15.90;;;7.50;;
47483;SDS011;54076;50.322;18.650;2022-10-15T14:52:12;14.40;;;7.50;;
47483;SDS011;54076;50.322;18.650;2022-10-15T14:57:21;13.70;;;7.10;;
47483;SDS011;54076;50.322;18.650;2022-10-15T15:02:25;15.60;;;7.80;;
47483;SDS011;54076;50.322;18.650;2022-10-15T15:07:28;13.30;;;7.10;;
47483;SDS011;54076;50.322;18.650;2022-10-15T15:12:29;18.10;;;7.60;;
47483;SDS011;54076;50.322;18.650;2022-10-15T15:17:32;15.80;;;7.30;;
47483;SDS011;54076;50.322;18.650;2022-10-15T15:22:34;13.80;;;7.60;;
47483;SDS011;54076;50.322;18.650;2022-10-15T15:27:36;15.70;;;7.10;;
47483;SDS011;54076;50.322;18.650;2022-10-15T15:32:37;13.20;;;7.40;;
47483;SDS011;54076;50.322;18.650;2022-10-15T15:37:39;14.90;;;7.90;;
47483;SDS011;54076;50.322;18.650;2022-10-15T15:42:40;14.70;;;7.70;;
47483;SDS011;54076;50.322;18.650;2022-10-15T15:47:41;14.60;;;7.70;;
47483;SDS011;54076;50.322;18.650;2022-10-15T15:52:42;15.00;;;7.60;;
47483;SDS011;54076;50.322;18.650;2022-10-15T15:57:43;15.20;;;7.50;;
47483;SDS011;54076;50.322;18.650;2022-10-15T16:02:45;16.40;;;7.40;;
47483;SDS011;54076;50.322;18.650;2022-10-15T16:07:46;15.50;;;8.40;;
47483;SDS011;54076;50.322;18.650;2022-10-15T16:12:47;14.20;;;7.70;;
47483;SDS011;54076;50.322;18.650;2022-10-15T16:17:48;14.00;;;8.00;;
47483;SDS011;54076;50.322;18.650;2022-10-15T16:22:50;16.70;;;8.40;;
47483;SDS011;54076;50.322;18.650;2022-10-15T16:27:52;15.90;;;8.50;;
47483;SDS011;54076;50.322;18.650;2022-10-15T16:32:56;15.60;;;8.50;;
47483;SDS011;54076;50.322;18.650;2022-10-15T16:37:57;14.50;;;7.80;;
47483;SDS011;54076;50.322;18.650;2022-10-15T16:42:58;16.20;;;8.20;;
47483;SDS011;54076;50.322;18.650;2022-10-15T16:48:00;17.70;;;8.10;;
47483;SDS011;54076;50.322;18.650;2022-10-15T16:53:01;17.90;;;7.80;;
47483;SDS011;54076;50.322;18.650;2022-10-15T16:58:02;19.80;;;9.60;;
47483;SDS011;54076;50.322;18.650;2022-10-15T17:03:03;20.30;;;9.70;;
47483;SDS011;54076;50.322;18.650;2022-10-15T17:08:04;17.30;;;9.20;;
47483;SDS011;54076;50.322;18.650;2022-10-15T17:13:05;18.80;;;9.70;;
47483;SDS011;54076;50.322;18.650;2022-10-15T17:18:06;15.70;;;8.90;;
47483;SDS011;54076;50.322;18.650;2022-10-15T17:23:07;18.00;;;8.40;;
47483;SDS011;54076;50.322;18.650;2022-10-15T17:28:08;16.90;;;8.40;;
47483;SDS011;54076;50.322;18.650;2022-10-15T17:33:09;18.10;;;8.60;;
47483;SDS011;54076;50.322;18.650;2022-10-15T17:38:10;16.20;;;8.40;;
47483;SDS011;54076;50.322;18.650;2022-10-15T17:43:11;15.90;;;7.40;;
47483;SDS011;54076;50.322;18.650;2022-10-15T17:48:11;15.00;;;7.30;;
47483;SDS011;54076;50.322;18.650;2022-10-15T17:53:13;15.50;;;7.80;;
47483;SDS011;54076;50.322;18.650;2022-10-15T17:58:15;16.60;;;7.50;;
47483;SDS011;54076;50.322;18.650;2022-10-15T18:03:16;16.40;;;7.70;;
47483;SDS011;54076;50.322;18.650;2022-10-15T18:08:17;14.40;;;8.30;;
47483;SDS011;54076;50.322;18.650;2022-10-15T18:13:18;18.00;;;8.10;;
47483;SDS011;54076;50.322;18.650;2022-10-15T18:18:20;18.30;;;9.30;;
47483;SDS011;54076;50.322;18.650;2022-10-15T18:23:21;22.50;;;9.90;;
47483;SDS011;54076;50.322;18.650;2022-10-15T18:28:24;19.70;;;9.00;;
47483;SDS011;54076;50.322;18.650;2022-10-15T18:33:25;18.40;;;8.70;;
47483;SDS011;54076;50.322;18.650;2022-10-15T18:38:26;21.40;;;9.90;;
47483;SDS011;54076;50.322;18.650;2022-10-15T18:43:27;18.50;;;9.00;;
47483;SDS011;54076;50.322;18.650;2022-10-15T18:48:28;21.00;;;9.70;;
47483;SDS011;54076;50.322;18.650;2022-10-15T18:53:29;20.20;;;9.80;;
47483;SDS011;54076;50.322;18.650;2022-10-15T18:58:30;24.50;;;10.70;;
47483;SDS011;54076;50.322;18.650;2022-10-15T19:03:31;21.80;;;10.90;;
47483;SDS011;54076;50.322;18.650;2022-10-15T19:08:32;27.40;;;12.10;;
47483;SDS011;54076;50.322;18.650;2022-10-15T19:13:34;24.80;;;11.20;;
47483;SDS011;54076;50.322;18.650;2022-10-15T19:18:36;20.90;;;10.60;;
47483;SDS011;54076;50.322;18.650;2022-10-15T19:23:38;25.00;;;11.80;;
47483;SDS011;54076;50.322;18.650;2022-10-15T19:28:39;24.40;;;11.40;;
47483;SDS011;54076;50.322;18.650;2022-10-15T19:33:40;28.50;;;11.40;;
47483;SDS011;54076;50.322;18.650;2022-10-15T19:38:42;27.30;;;11.90;;
47483;SDS011;54076;50.322;18.650;2022-10-15T19:43:44;23.30;;;11.10;;
47483;SDS011;54076;50.322;18.650;2022-10-15T19:48:45;26.20;;;11.90;;
47483;SDS011;54076;50.322;18.650;2022-10-15T19:53:50;24.10;;;10.10;;
47483;SDS011;54076;50.322;18.650;2022-10-15T19:58:55;22.40;;;10.90;;
47483;SDS011;54076;50.322;18.650;2022-10-15T20:04:02;24.00;;;11.40;;
47483;SDS011;54076;50.322;18.650;2022-10-15T20:09:04;23.50;;;11.30;;
47483;SDS011;54076;50.322;18.650;2022-10-15T20:14:06;23.40;;;11.20;;
47483;SDS011;54076;50.322;18.650;2022-10-15T20:19:07;22.80;;;11.50;;
47483;SDS011;54076;50.322;18.650;2022-10-15T20:24:07;21.60;;;11.60;;
47483;SDS011;54076;50.322;18.650;2022-10-15T20:29:08;23.50;;;11.20;;
47483;SDS011;54076;50.322;18.650;2022-10-15T20:34:09;19.40;;;10.30;;
47483;SDS011;54076;50.322;18.650;2022-10-15T20:39:10;21.80;;;10.40;;
47483;SDS011;54076;50.322;18.650;2022-10-15T20:44:11;23.60;;;10.40;;
47483;SDS011;54076;50.322;18.650;2022-10-15T20:49:15;19.20;;;9.60;;
47483;SDS011;54076;50.322;18.650;2022-10-15T20:54:20;20.70;;;9.00;;
47483;SDS011;54076;50.322;18.650;2022-10-15T20:59:21;20.80;;;9.80;;
47483;SDS011;54076;50.322;18.650;2022-10-15T21:04:22;17.30;;;8.20;;
47483;SDS011;54076;50.322;18.650;2022-10-15T21:09:23;15.30;;;8.30;;
47483;SDS011;54076;50.322;18.650;2022-10-15T21:14:24;15.10;;;7.50;;
47483;SDS011;54076;50.322;18.650;2022-10-15T21:19:25;15.70;;;7.90;;
47483;SDS011;54076;50.322;18.650;2022-10-15T21:24:26;13.60;;;7.80;;
47483;SDS011;54076;50.322;18.650;2022-10-15T21:29:29;13.70;;;7.30;;
47483;SDS011;54076;50.322;18.650;2022-10-15T21:34:30;14.30;;;7.10;;
47483;SDS011;54076;50.322;18.650;2022-10-15T21:39:31;12.20;;;7.30;;
47483;SDS011;54076;50.322;18.650;2022-10-15T21:44:32;14.00;;;7.00;;
47483;SDS011;54076;50.322;18.650;2022-10-15T21:49:33;12.20;;;6.90;;
47483;SDS011;54076;50.322;18.650;2022-10-15T21:54:34;14.50;;;6.70;;
47483;SDS011;54076;50.322;18.650;2022-10-15T21:59:35;15.80;;;7.70;;
47483;SDS011;54076;50.322;18.650;2022-10-15T22:04:36;14.50;;;7.30;;
47483;SDS011;54076;50.322;18.650;2022-10-15T22:09:38;17.60;;;7.30;;
47483;SDS011;54076;50.322;18.650;2022-10-15T22:14:39;14.90;;;6.90;;
47483;SDS011;54076;50.322;18.650;2022-10-15T22:19:40;14.50;;;6.70;;
47483;SDS011;54076;50.322;18.650;2022-10-15T22:24:41;14.80;;;6.70;;
47483;SDS011;54076;50.322;18.650;2022-10-15T22:29:41;14.10;;;7.10;;
47483;SDS011;54076;50.322;18.650;2022-10-15T22:34:43;14.60;;;7.00;;
47483;SDS011;54076;50.322;18.650;2022-10-15T22:39:44;13.90;;;7.00;;
47483;SDS011;54076;50.322;18.650;2022-10-15T22:44:45;11.60;;;5.80;;
47483;SDS011;54076;50.322;18.650;2022-10-15T22:49:46;14.00;;;6.90;;
47483;SDS011;54076;50.322;18.650;2022-10-15T22:54:47;14.60;;;7.40;;
47483;SDS011;54076;50.322;18.650;2022-10-15T22:59:50;13.60;;;6.80;;
47483;SDS011;54076;50.322;18.650;2022-10-15T23:04:51;13.70;;;6.40;;
47483;SDS011;54076;50.322;18.650;2022-10-15T23:09:52;12.90;;;7.40;;
47483;SDS011;54076;50.322;18.650;2022-10-15T23:14:53;11.80;;;6.40;;
47483;SDS011;54076;50.322;18.650;2022-10-15T23:19:54;12.20;;;6.70;;
47483;SDS011;54076;50.322;18.650;2022-10-15T23:24:55;12.70;;;7.10;;
47483;SDS011;54076;50.322;18.650;2022-10-15T23:29:56;15.00;;;6.60;;
47483;SDS011;54076;50.322;18.650;2022-10-15T23:34:57;14.50;;;6.90;;
47483;SDS011;54076;50.322;18.650;2022-10-15T23:39:57;12.60;;;6.40;;
47483;SDS011;54076;50.322;18.650;2022-10-15T23:44:58;14.00;;;6.60;;
47483;SDS011;54076;50.322;18.650;2022-10-15T23:49:59;15.40;;;7.60;;
47483;SDS011;54076;50.322;18.650;2022-10-15T23:55:00;13.30;;;6.80;;
